createdAt,value
2018-10-01T00:02:02.342Z,99272.00
2018-10-01T00:04:07.506Z,99272.00
2018-10-01T00:06:12.381Z,99261.00
2018-10-01T00:08:17.239Z,99264.00
2018-10-01T00:10:21.994Z,99262.00
2018-10-01T00:12:27.394Z,99270.00
2018-10-01T00:14:32.114Z,99263.00
2018-10-01T00:16:36.759Z,99268.00
2018-10-01T00:18:41.431Z,99268.00
2018-10-01T00:20:52.362Z,99263.00
2018-10-01T00:22:57.091Z,99263.00
2018-10-01T00:25:01.831Z,99260.00
2018-10-01T00:27:07.704Z,99270.00
2018-10-01T00:29:12.392Z,99260.00
2018-10-01T00:31:17.052Z,99270.00
2018-10-01T00:33:21.698Z,99267.00
2018-10-01T00:35:27.544Z,99265.00
2018-10-01T00:37:34.074Z,99263.00
2018-10-01T00:39:38.826Z,99260.00
2018-10-01T00:41:43.568Z,99254.00
2018-10-01T00:43:48.282Z,99250.00
2018-10-01T00:45:52.950Z,99255.00
2018-10-01T00:47:57.593Z,99262.00
2018-10-01T00:50:02.371Z,99265.00
2018-10-01T00:52:07.902Z,99263.00
2018-10-01T00:54:12.583Z,99260.00
2018-10-01T00:56:17.386Z,99257.00
2018-10-01T00:58:22.089Z,99264.00
2018-10-01T01:00:27.736Z,99262.00
2018-10-01T01:02:32.460Z,99253.00
2018-10-01T01:04:37.165Z,99265.00
2018-10-01T01:06:41.835Z,99253.00
2018-10-01T01:08:47.763Z,99249.00
2018-10-01T01:10:52.511Z,99248.00
2018-10-01T01:12:57.185Z,99259.00
2018-10-01T01:15:01.885Z,99260.00
2018-10-01T01:17:09.661Z,99245.00
2018-10-01T01:19:14.505Z,99255.00
2018-10-01T01:21:19.251Z,99254.00
2018-10-01T01:23:23.915Z,99247.00
2018-10-01T01:25:28.723Z,99255.00
2018-10-01T01:27:33.410Z,99247.00
2018-10-01T01:29:38.176Z,99232.00
2018-10-01T01:31:42.848Z,99236.00
2018-10-01T01:33:48.012Z,99244.00
2018-10-01T01:35:52.717Z,99243.00
2018-10-01T01:37:57.440Z,99242.00
2018-10-01T01:40:02.219Z,99245.00
2018-10-01T01:42:08.202Z,99254.00
2018-10-01T01:44:12.882Z,99248.00
2018-10-01T01:46:17.704Z,99259.00
2018-10-01T01:48:22.404Z,99254.00
2018-10-01T01:50:28.018Z,99247.00
2018-10-01T01:52:32.744Z,99234.00
2018-10-01T01:54:37.480Z,99230.00
2018-10-01T01:56:42.213Z,99235.00
2018-10-01T01:58:48.153Z,99240.00
2018-10-01T02:00:52.855Z,99238.00
2018-10-01T02:02:57.544Z,99245.00
2018-10-01T02:05:02.204Z,99238.00
2018-10-01T02:07:06.940Z,99235.00
2018-10-01T02:09:12.313Z,99235.00
2018-10-01T02:11:16.974Z,99241.00
2018-10-01T02:13:21.639Z,99244.00
2018-10-01T02:15:26.350Z,99237.00
2018-10-01T02:17:31.030Z,99238.00
2018-10-01T02:19:35.699Z,99235.00
2018-10-01T02:21:40.464Z,99238.00
2018-10-01T02:23:45.170Z,99237.00
2018-10-01T02:25:49.850Z,99234.00
2018-10-01T02:27:54.519Z,99239.00
2018-10-01T02:29:59.180Z,99247.00
2018-10-01T02:32:03.854Z,99241.00
2018-10-01T02:34:08.599Z,99242.00
2018-10-01T02:36:13.315Z,99256.00
2018-10-01T02:38:17.979Z,99258.00
2018-10-01T02:40:22.692Z,99251.00
2018-10-01T02:42:27.347Z,99253.00
2018-10-01T02:44:32.057Z,99259.00
2018-10-01T02:46:36.888Z,99260.00
2018-10-01T02:48:41.580Z,99253.00
2018-10-01T02:50:46.294Z,99254.00
2018-10-01T02:52:56.010Z,99262.00
2018-10-01T02:55:00.640Z,99265.00
2018-10-01T02:57:05.364Z,99257.00
2018-10-01T02:59:10.066Z,99265.00
2018-10-01T03:01:15.038Z,99261.00
2018-10-01T03:03:19.710Z,99259.00
2018-10-01T03:05:24.434Z,99264.00
2018-10-01T03:07:29.177Z,99267.00
2018-10-01T03:09:34.981Z,99250.00
2018-10-01T03:11:39.676Z,99258.00
2018-10-01T03:13:44.558Z,99248.00
2018-10-01T03:15:49.197Z,99254.00
2018-10-01T03:17:55.023Z,99246.00
2018-10-01T03:19:59.768Z,99256.00
2018-10-01T03:22:04.542Z,99251.00
2018-10-01T03:24:09.308Z,99260.00
2018-10-01T03:26:13.951Z,99252.00
2018-10-01T03:28:18.621Z,99242.00
2018-10-01T03:30:23.272Z,99232.00
2018-10-01T03:32:27.943Z,99236.00
2018-10-01T03:34:32.580Z,99235.00
2018-10-01T03:36:37.373Z,99239.00
2018-10-01T03:38:42.344Z,99238.00
2018-10-01T03:40:47.023Z,99238.00
2018-10-01T03:42:51.714Z,99249.00
2018-10-01T03:44:56.319Z,99245.00
2018-10-01T03:47:02.532Z,99238.00
2018-10-01T03:49:08.221Z,99243.00
2018-10-01T03:51:14.096Z,99240.00
2018-10-01T03:53:19.298Z,99240.00
2018-10-01T03:55:23.921Z,99251.00
2018-10-01T03:57:34.959Z,99249.00
2018-10-01T03:59:39.831Z,99247.00
2018-10-01T04:01:44.523Z,99244.00
2018-10-01T04:03:49.224Z,99252.00
2018-10-01T04:05:53.924Z,99249.00
2018-10-01T04:07:58.635Z,99253.00
2018-10-01T04:10:03.455Z,99249.00
2018-10-01T04:12:08.207Z,99256.00
2018-10-01T04:14:12.867Z,99253.00
2018-10-01T04:16:17.538Z,99259.00
2018-10-01T04:18:22.207Z,99256.00
2018-10-01T04:20:26.840Z,99252.00
2018-10-01T04:22:38.644Z,99262.00
2018-10-01T04:24:43.253Z,99260.00
2018-10-01T04:26:48.019Z,99253.00
2018-10-01T04:28:52.628Z,99260.00
2018-10-01T04:30:57.306Z,99256.00
2018-10-01T04:33:01.986Z,99256.00
2018-10-01T04:35:06.710Z,99271.00
2018-10-01T04:37:11.370Z,99270.00
2018-10-01T04:39:16.271Z,99277.00
2018-10-01T04:41:21.006Z,99269.00
2018-10-01T04:43:25.667Z,99270.00
2018-10-01T04:45:30.367Z,99277.00
2018-10-01T04:47:34.990Z,99278.00
2018-10-01T04:49:39.632Z,99273.00
2018-10-01T04:51:44.406Z,99272.00
2018-10-01T04:53:49.076Z,99281.00
2018-10-01T04:55:53.719Z,99285.00
2018-10-01T04:57:58.411Z,99282.00
2018-10-01T05:00:03.127Z,99281.00
2018-10-01T05:02:08.302Z,99285.00
2018-10-01T05:04:12.924Z,99291.00
2018-10-01T05:06:17.674Z,99296.00
2018-10-01T05:08:22.252Z,99287.00
2018-10-01T05:10:27.028Z,99295.00
2018-10-01T05:12:31.687Z,99307.00
2018-10-01T05:14:36.614Z,99299.00
2018-10-01T05:16:41.311Z,99308.00
2018-10-01T05:18:46.342Z,99314.00
2018-10-01T05:20:51.040Z,99311.00
2018-10-01T05:22:56.698Z,99310.00
2018-10-01T05:25:01.331Z,99316.00
2018-10-01T05:27:06.095Z,99309.00
2018-10-01T05:29:10.710Z,99310.00
2018-10-01T05:31:16.609Z,99326.00
2018-10-01T05:33:21.266Z,99315.00
2018-10-01T05:35:25.877Z,99311.00
2018-10-01T05:37:32.106Z,99317.00
2018-10-01T05:39:37.387Z,99319.00
2018-10-01T05:41:42.172Z,99323.00
2018-10-01T05:43:46.856Z,99332.00
2018-10-01T05:45:51.501Z,99319.00
2018-10-01T05:47:56.978Z,99326.00
2018-10-01T05:50:01.633Z,99312.00
2018-10-01T05:52:06.367Z,99319.00
2018-10-01T05:54:11.180Z,99314.00
2018-10-01T05:56:16.953Z,99317.00
2018-10-01T05:58:21.674Z,99311.00
2018-10-01T06:00:26.517Z,99318.00
2018-10-01T06:02:31.284Z,99338.00
2018-10-01T06:04:36.035Z,99344.00
2018-10-01T06:06:40.694Z,99339.00
2018-10-01T06:08:45.505Z,99346.00
2018-10-01T06:10:50.274Z,99345.00
2018-10-01T06:12:54.990Z,99349.00
2018-10-01T06:14:59.660Z,99348.00
2018-10-01T06:17:04.299Z,99346.00
2018-10-01T06:19:09.137Z,99359.00
2018-10-01T06:21:13.782Z,99363.00
2018-10-01T06:23:18.510Z,99368.00
2018-10-01T06:25:23.201Z,99366.00
2018-10-01T06:27:27.963Z,99368.00
2018-10-01T06:30:18.953Z,99364.00
2018-10-01T06:32:23.630Z,99370.00
2018-10-01T06:34:28.436Z,99374.00
2018-10-01T06:36:33.057Z,99366.00
2018-10-01T06:38:38.171Z,99366.00
2018-10-01T06:40:43.033Z,99371.00
2018-10-01T06:42:47.731Z,99372.00
2018-10-01T06:44:52.430Z,99376.00
2018-10-01T06:46:57.291Z,99381.00
2018-10-01T06:49:02.032Z,99384.00
2018-10-01T06:51:06.963Z,99394.00
2018-10-01T06:53:11.638Z,99389.00
2018-10-01T06:55:16.283Z,99397.00
2018-10-01T06:57:21.899Z,99398.00
2018-10-01T06:59:27.358Z,99392.00
2018-10-01T07:01:31.985Z,99400.00
2018-10-01T07:03:36.748Z,99398.00
2018-10-01T07:05:42.033Z,99402.00
2018-10-01T07:07:46.751Z,99397.00
2018-10-01T07:09:51.815Z,99401.00
2018-10-01T07:11:56.487Z,99407.00
2018-10-01T07:14:02.105Z,99413.00
2018-10-01T07:16:06.875Z,99410.00
2018-10-01T07:18:11.820Z,99419.00
2018-10-01T07:20:16.965Z,99413.00
2018-10-01T07:22:22.226Z,99413.00
2018-10-01T07:24:26.971Z,99410.00
2018-10-01T07:26:31.647Z,99415.00
2018-10-01T07:28:36.338Z,99415.00
2018-10-01T07:30:42.233Z,99417.00
2018-10-01T07:32:47.188Z,99419.00
2018-10-01T07:34:51.920Z,99425.00
2018-10-01T07:36:56.739Z,99432.00
2018-10-01T07:39:02.930Z,99420.00
2018-10-01T07:41:07.822Z,99424.00
2018-10-01T07:43:18.571Z,99426.00
2018-10-01T07:45:24.613Z,99431.00
2018-10-01T07:47:29.493Z,99433.00
2018-10-01T07:49:34.330Z,99426.00
2018-10-01T07:51:39.006Z,99436.00
2018-10-01T07:53:43.693Z,99435.00
2018-10-01T07:55:48.412Z,99441.00
2018-10-01T07:57:53.111Z,99437.00
2018-10-01T07:59:58.029Z,99448.00
2018-10-01T08:02:03.504Z,99448.00
2018-10-01T08:04:08.464Z,99441.00
2018-10-01T08:06:13.238Z,99443.00
2018-10-01T08:08:18.251Z,99451.00
2018-10-01T08:10:23.081Z,99450.00
2018-10-01T08:12:27.834Z,99449.00
2018-10-01T08:14:32.670Z,99453.00
2018-10-01T08:16:37.467Z,99465.00
2018-10-01T08:18:42.182Z,99457.00
2018-10-01T08:20:47.290Z,99458.00
2018-10-01T08:22:52.163Z,99458.00
2018-10-01T08:24:57.430Z,99469.00
2018-10-01T08:27:02.868Z,99463.00
2018-10-01T08:29:07.866Z,99463.00
2018-10-01T08:31:12.567Z,99468.00
2018-10-01T08:33:17.385Z,99468.00
2018-10-01T08:35:22.270Z,99459.00
2018-10-01T08:37:29.379Z,99469.00
2018-10-01T08:39:34.537Z,99479.00
2018-10-01T08:41:39.857Z,99465.00
2018-10-01T08:43:44.704Z,99473.00
2018-10-01T08:45:49.524Z,99468.00
2018-10-01T08:47:54.252Z,99473.00
2018-10-01T08:50:05.569Z,99484.00
2018-10-01T08:52:14.729Z,99488.00
2018-10-01T08:54:26.386Z,99488.00
2018-10-01T08:56:31.085Z,99491.00
2018-10-01T08:58:35.815Z,99503.00
2018-10-01T09:00:40.664Z,99498.00
2018-10-01T09:02:45.354Z,99496.00
2018-10-01T09:04:50.069Z,99501.00
2018-10-01T09:06:54.838Z,99504.00
2018-10-01T09:08:59.539Z,99501.00
2018-10-01T09:11:04.451Z,99510.00
2018-10-01T09:13:09.392Z,99510.00
2018-10-01T09:15:14.198Z,99507.00
2018-10-01T09:17:19.089Z,99515.00
2018-10-01T09:19:24.512Z,99515.00
2018-10-01T09:21:29.549Z,99510.00
2018-10-01T09:23:34.420Z,99509.00
2018-10-01T09:25:39.354Z,99508.00
2018-10-01T09:27:44.438Z,99508.00
2018-10-01T09:29:49.248Z,99522.00
2018-10-01T09:31:54.330Z,99516.00
2018-10-01T09:34:01.448Z,99523.00
2018-10-01T09:36:07.676Z,99528.00
2018-10-01T09:38:12.520Z,99527.00
2018-10-01T09:40:17.283Z,99530.00
2018-10-01T09:42:21.969Z,99527.00
2018-10-01T09:44:27.315Z,99522.00
2018-10-01T09:46:32.311Z,99531.00
2018-10-01T09:48:37.066Z,99518.00
2018-10-01T09:50:41.819Z,99520.00
2018-10-01T09:52:46.608Z,99518.00
2018-10-01T09:54:51.593Z,99513.00
2018-10-01T09:56:56.372Z,99511.00
2018-10-01T09:59:01.402Z,99525.00
2018-10-01T10:01:11.513Z,99516.00
2018-10-01T10:03:16.207Z,99517.00
2018-10-01T10:05:21.145Z,99521.00
2018-10-01T10:07:25.837Z,99530.00
2018-10-01T10:09:30.517Z,99532.00
2018-10-01T10:11:35.991Z,99528.00
2018-10-01T10:13:40.774Z,99526.00
2018-10-01T10:15:45.773Z,99524.00
2018-10-01T10:17:50.596Z,99515.00
2018-10-01T10:19:55.289Z,99507.00
2018-10-01T10:22:00.340Z,99510.00
2018-10-01T10:24:05.101Z,99502.00
2018-10-01T10:26:10.767Z,99508.00
2018-10-01T10:28:15.880Z,99518.00
2018-10-01T10:30:20.681Z,99507.00
2018-10-01T10:32:25.750Z,99508.00
2018-10-01T10:34:30.716Z,99514.00
2018-10-01T10:36:35.520Z,99515.00
2018-10-01T10:38:40.478Z,99518.00
2018-10-01T10:40:45.149Z,99515.00
2018-10-01T10:42:49.912Z,99508.00
2018-10-01T10:44:54.661Z,99517.00
2018-10-01T10:46:59.494Z,99518.00
2018-10-01T10:49:04.168Z,99519.00
2018-10-01T10:51:09.297Z,99523.00
2018-10-01T10:53:13.994Z,99525.00
2018-10-01T10:55:18.863Z,99529.00
2018-10-01T10:57:23.567Z,99535.00
2018-10-01T10:59:29.366Z,99543.00
2018-10-01T11:01:34.157Z,99541.00
2018-10-01T11:03:38.867Z,99533.00
2018-10-01T11:05:43.627Z,99539.00
2018-10-01T11:07:49.645Z,99530.00
2018-10-01T11:09:54.389Z,99530.00
2018-10-01T11:11:59.069Z,99528.00
2018-10-01T11:14:03.886Z,99529.00
2018-10-01T11:16:08.666Z,99527.00
2018-10-01T11:18:13.432Z,99525.00
2018-10-01T11:20:18.638Z,99542.00
2018-10-01T11:22:23.363Z,99534.00
2018-10-01T11:24:28.350Z,99543.00
2018-10-01T11:26:33.136Z,99531.00
2018-10-01T11:28:38.250Z,99528.00
2018-10-01T11:30:43.266Z,99542.00
2018-10-01T11:32:48.332Z,99535.00
2018-10-01T11:34:53.518Z,99533.00
2018-10-01T11:36:58.356Z,99536.00
2018-10-01T11:39:03.230Z,99549.00
2018-10-01T11:41:07.984Z,99556.00
2018-10-01T11:43:13.830Z,99548.00
2018-10-01T11:45:18.677Z,99561.00
2018-10-01T11:47:23.415Z,99567.00
2018-10-01T11:49:28.267Z,99565.00
2018-10-01T11:51:34.073Z,99566.00
2018-10-01T11:53:38.813Z,99587.00
2018-10-01T11:55:43.799Z,99602.00
2018-10-01T11:57:49.375Z,99614.00
2018-10-01T11:59:54.042Z,99622.00
2018-10-01T12:01:59.116Z,99627.00
2018-10-01T12:04:03.963Z,99633.00
2018-10-01T12:06:08.645Z,99651.00
2018-10-01T12:08:14.226Z,99634.00
2018-10-01T12:10:19.048Z,99639.00
2018-10-01T12:12:23.730Z,99639.00
2018-10-01T12:14:28.421Z,99639.00
2018-10-01T12:16:34.353Z,99627.00
2018-10-01T12:18:39.156Z,99634.00
2018-10-01T12:20:43.973Z,99636.00
2018-10-01T12:22:48.939Z,99632.00
2018-10-01T12:24:54.752Z,99635.00
2018-10-01T12:26:59.557Z,99638.00
2018-10-01T12:29:04.308Z,99631.00
2018-10-01T12:31:10.136Z,99632.00
2018-10-01T12:33:14.997Z,99628.00
2018-10-01T12:35:19.668Z,99627.00
2018-10-01T12:37:24.633Z,99638.00
2018-10-01T12:39:30.632Z,99645.00
2018-10-01T12:41:35.680Z,99640.00
2018-10-01T12:43:40.380Z,99641.00
2018-10-01T12:45:45.134Z,99643.00
2018-10-01T12:47:49.717Z,99641.00
2018-10-01T12:49:54.344Z,99640.00
2018-10-01T12:51:59.126Z,99630.00
2018-10-01T12:54:03.859Z,99634.00
2018-10-01T12:56:08.686Z,99647.00
2018-10-01T12:58:14.597Z,99645.00
2018-10-01T13:00:19.381Z,99635.00
2018-10-01T13:02:24.130Z,99631.00
2018-10-01T13:04:28.842Z,99634.00
2018-10-01T13:06:34.694Z,99633.00
2018-10-01T13:08:39.366Z,99636.00
2018-10-01T13:10:44.093Z,99616.00
2018-10-01T13:12:48.841Z,99628.00
2018-10-01T13:14:53.693Z,99630.00
2018-10-01T13:16:58.402Z,99623.00
2018-10-01T13:19:03.380Z,99630.00
2018-10-01T13:21:08.585Z,99653.00
2018-10-01T13:23:13.270Z,99665.00
2018-10-01T13:25:17.947Z,99627.00
2018-10-01T13:27:22.666Z,99638.00
2018-10-01T13:29:27.309Z,99643.00
2018-10-01T13:31:31.999Z,99639.00
2018-10-01T13:33:36.785Z,99630.00
2018-10-01T13:35:41.566Z,99635.00
2018-10-01T13:37:46.257Z,99631.00
2018-10-01T13:39:50.900Z,99638.00
2018-10-01T13:41:55.560Z,99640.00
2018-10-01T13:44:00.272Z,99635.00
2018-10-01T13:46:05.109Z,99640.00
2018-10-01T13:48:09.933Z,99633.00
2018-10-01T13:50:14.487Z,99636.00
2018-10-01T13:52:19.583Z,99638.00
2018-10-01T13:54:24.213Z,99643.00
2018-10-01T13:56:29.092Z,99631.00
2018-10-01T13:58:33.870Z,99633.00
2018-10-01T14:00:39.927Z,99635.00
2018-10-01T14:02:45.556Z,99638.00
2018-10-01T14:04:50.437Z,99638.00
2018-10-01T14:06:55.335Z,99629.00
2018-10-01T14:09:00.258Z,99619.00
2018-10-01T14:11:06.342Z,99630.00
2018-10-01T14:13:11.668Z,99641.00
2018-10-01T14:15:16.657Z,99640.00
2018-10-01T14:17:22.861Z,99634.00
2018-10-01T14:19:28.116Z,99627.00
2018-10-01T14:21:33.045Z,99642.00
2018-10-01T14:23:37.771Z,99663.00
2018-10-01T14:25:42.475Z,99658.00
2018-10-01T14:27:47.730Z,99660.00
2018-10-01T14:29:52.799Z,99672.00
2018-10-01T14:34:31.881Z,99705.00
2018-10-01T14:36:36.713Z,99696.00
2018-10-01T14:38:41.407Z,99695.00
2018-10-01T14:40:46.146Z,99704.00
2018-10-01T14:42:50.829Z,99713.00
2018-10-01T14:44:55.467Z,99688.00
2018-10-01T14:47:00.214Z,99693.00
2018-10-01T14:49:05.040Z,99694.00
2018-10-01T14:51:09.943Z,99692.00
2018-10-01T14:53:14.646Z,99681.00
2018-10-01T14:55:20.592Z,99675.00
2018-10-01T14:57:25.265Z,99678.00
2018-10-01T14:59:30.031Z,99657.00
2018-10-01T15:01:34.752Z,99674.00
2018-10-01T15:03:40.331Z,99674.00
2018-10-01T15:05:45.152Z,99673.00
2018-10-01T15:07:50.186Z,99664.00
2018-10-01T15:09:55.035Z,99660.00
2018-10-01T15:11:59.687Z,99667.00
2018-10-01T15:14:04.496Z,99663.00
2018-10-01T15:16:10.348Z,99678.00
2018-10-01T15:18:15.193Z,99669.00
2018-10-01T15:20:20.214Z,99674.00
2018-10-01T15:22:25.120Z,99682.00
2018-10-01T15:24:31.032Z,99691.00
2018-10-01T15:26:35.975Z,99682.00
2018-10-01T15:28:40.844Z,99687.00
2018-10-01T15:30:45.561Z,99687.00
2018-10-01T15:32:51.242Z,99682.00
2018-10-01T15:34:56.006Z,99693.00
2018-10-01T15:37:01.112Z,99698.00
2018-10-01T15:39:09.328Z,99698.00
2018-10-01T15:41:14.493Z,99704.00
2018-10-01T15:43:19.388Z,99709.00
2018-10-01T15:45:24.153Z,99709.00
2018-10-01T15:47:28.952Z,99715.00
2018-10-01T15:49:33.805Z,99711.00
2018-10-01T15:51:38.635Z,99711.00
2018-10-01T15:53:43.542Z,99720.00
2018-10-01T15:55:48.574Z,99713.00
2018-10-01T15:57:53.413Z,99720.00
2018-10-01T16:00:02.994Z,99723.00
2018-10-01T16:02:11.743Z,99713.00
2018-10-01T16:04:18.897Z,99725.00
2018-10-01T16:06:28.077Z,99729.00
2018-10-01T16:08:36.160Z,99738.00
2018-10-01T16:10:43.705Z,99739.00
2018-10-01T16:12:58.030Z,99745.00
2018-10-01T16:15:07.428Z,99747.00
2018-10-01T16:17:18.846Z,99749.00
2018-10-01T16:19:27.261Z,99752.00
2018-10-01T16:21:36.445Z,99765.00
2018-10-01T16:23:42.912Z,99767.00
2018-10-01T16:25:50.348Z,99764.00
2018-10-01T16:28:04.697Z,99763.00
2018-10-01T16:30:13.975Z,99765.00
2018-10-01T16:32:21.617Z,99777.00
2018-10-01T16:34:30.209Z,99771.00
2018-10-01T16:36:35.212Z,99781.00
2018-10-01T16:38:40.298Z,99783.00
2018-10-01T16:40:45.098Z,99777.00
2018-10-01T16:42:50.169Z,99779.00
2018-10-01T16:44:55.487Z,99784.00
2018-10-01T16:47:00.399Z,99776.00
2018-10-01T16:49:05.355Z,99777.00
2018-10-01T16:51:10.284Z,99772.00
2018-10-01T16:53:15.118Z,99783.00
2018-10-01T16:55:20.119Z,99783.00
2018-10-01T16:57:25.001Z,99785.00
2018-10-01T16:59:29.937Z,99781.00
2018-10-01T17:01:35.123Z,99785.00
2018-10-01T17:03:40.851Z,99785.00
2018-10-01T17:05:46.289Z,99788.00
2018-10-01T17:07:50.967Z,99797.00
2018-10-01T17:09:56.713Z,99792.00
2018-10-01T17:12:01.609Z,99789.00
2018-10-01T17:14:06.448Z,99803.00
2018-10-01T17:16:11.440Z,99801.00
2018-10-01T17:18:16.166Z,99810.00
2018-10-01T17:20:21.198Z,99823.00
2018-10-01T17:22:26.200Z,99833.00
2018-10-01T17:24:30.935Z,99838.00
2018-10-01T17:26:35.784Z,99840.00
2018-10-01T17:28:40.871Z,99849.00
2018-10-01T17:30:46.031Z,99855.00
2018-10-01T17:32:51.056Z,99857.00
2018-10-01T17:34:55.993Z,99864.00
2018-10-01T17:37:00.980Z,99877.00
2018-10-01T17:39:08.778Z,99871.00
2018-10-01T17:41:13.565Z,99879.00
2018-10-01T17:43:19.480Z,99871.00
2018-10-01T17:45:24.313Z,99876.00
2018-10-01T17:47:29.179Z,99891.00
2018-10-01T17:49:34.019Z,99883.00
2018-10-01T17:51:40.639Z,99894.00
2018-10-01T17:53:46.097Z,99883.00
2018-10-01T17:55:51.081Z,99888.00
2018-10-01T17:57:56.030Z,99875.00
2018-10-01T18:00:01.371Z,99883.00
2018-10-01T18:02:06.207Z,99891.00
2018-10-01T18:04:11.629Z,99886.00
2018-10-01T18:06:16.442Z,99880.00
2018-10-01T18:08:49.971Z,99871.00
2018-10-01T18:10:54.810Z,99888.00
2018-10-01T18:12:59.350Z,99894.00
2018-10-01T18:15:03.881Z,99900.00
2018-10-01T18:17:08.316Z,99894.00
2018-10-01T18:19:12.774Z,99894.00
2018-10-01T18:21:17.251Z,99907.00
2018-10-01T18:23:22.010Z,99903.00
2018-10-01T18:25:26.632Z,99909.00
2018-10-01T18:27:32.296Z,99907.00
2018-10-01T18:29:36.881Z,99910.00
2018-10-01T18:31:41.283Z,99906.00
2018-10-01T18:33:45.694Z,99914.00
2018-10-01T18:35:50.193Z,99898.00
2018-10-01T18:37:54.741Z,99918.00
2018-10-01T18:39:59.724Z,99916.00
2018-10-01T18:42:05.169Z,99911.00
2018-10-01T18:44:09.615Z,99915.00
2018-10-01T18:46:14.285Z,99927.00
2018-10-01T18:48:19.706Z,99935.00
2018-10-01T18:50:24.433Z,99926.00
2018-10-01T18:52:29.563Z,99926.00
2018-10-01T18:54:34.243Z,99935.00
2018-10-01T18:56:39.181Z,99926.00
2018-10-01T18:58:44.012Z,99928.00
2018-10-01T19:00:48.471Z,99930.00
2018-10-01T19:02:53.034Z,99936.00
2018-10-01T19:04:58.400Z,99936.00
2018-10-01T19:07:02.867Z,99936.00
2018-10-01T19:09:10.544Z,99943.00
2018-10-01T19:11:15.071Z,99940.00
2018-10-01T19:13:21.112Z,99942.00
2018-10-01T19:15:25.606Z,99939.00
2018-10-01T19:17:31.109Z,99934.00
2018-10-01T19:19:35.821Z,99938.00
2018-10-01T19:21:42.840Z,99936.00
2018-10-01T19:23:48.586Z,99941.00
2018-10-01T19:25:53.335Z,99935.00
2018-10-01T19:27:58.378Z,99920.00
2018-10-01T19:30:03.307Z,99942.00
2018-10-01T19:32:07.710Z,99939.00
2018-10-01T19:34:12.823Z,99941.00
2018-10-01T19:36:17.306Z,99938.00
2018-10-01T19:38:22.282Z,99941.00
2018-10-01T19:40:26.728Z,99949.00
2018-10-01T19:42:31.666Z,99940.00
2018-10-01T19:44:36.083Z,99947.00
2018-10-01T19:46:40.884Z,99946.00
2018-10-01T19:48:45.385Z,99948.00
2018-10-01T19:50:49.827Z,99941.00
2018-10-01T19:52:54.541Z,99950.00
2018-10-01T19:54:59.016Z,99950.00
2018-10-01T19:57:03.518Z,99954.00
2018-10-01T19:59:08.285Z,99943.00
2018-10-01T20:01:16.189Z,99947.00
2018-10-01T20:03:22.129Z,99955.00
2018-10-01T20:05:26.878Z,99962.00
2018-10-01T20:07:31.655Z,99954.00
2018-10-01T20:09:36.135Z,99956.00
2018-10-01T20:11:42.155Z,99956.00
2018-10-01T20:13:46.560Z,99963.00
2018-10-01T20:15:51.547Z,99953.00
2018-10-01T20:17:56.735Z,99963.00
2018-10-01T20:20:01.746Z,99958.00
2018-10-01T20:22:16.202Z,99962.00
2018-10-01T20:24:25.958Z,99967.00
2018-10-01T20:26:36.096Z,99968.00
2018-10-01T20:28:47.546Z,99968.00
2018-10-01T20:30:58.592Z,99972.00
2018-10-01T20:33:06.097Z,99968.00
2018-10-01T20:35:16.913Z,99971.00
2018-10-01T20:37:28.303Z,99972.00
2018-10-01T20:39:38.638Z,99968.00
2018-10-01T20:41:49.016Z,99972.00
2018-10-01T20:43:57.803Z,99968.00
2018-10-01T20:46:08.841Z,99968.00
2018-10-01T20:48:25.575Z,99974.00
2018-10-01T20:50:37.762Z,99971.00
2018-10-01T20:52:50.684Z,99976.00
2018-10-01T20:54:59.985Z,99979.00
2018-10-01T20:57:13.760Z,99978.00
2018-10-01T20:59:23.721Z,99976.00
2018-10-01T21:01:35.323Z,99974.00
2018-10-01T21:03:45.942Z,99968.00
2018-10-01T21:05:56.933Z,99976.00
2018-10-01T21:08:07.669Z,99972.00
2018-10-01T21:10:18.609Z,99974.00
2018-10-01T21:12:23.266Z,99973.00
2018-10-01T21:14:33.439Z,99971.00
2018-10-01T21:16:43.103Z,99972.00
2018-10-01T21:18:48.597Z,99963.00
2018-10-01T21:20:57.008Z,99972.00
2018-10-01T21:23:06.705Z,99974.00
2018-10-01T21:25:17.640Z,99975.00
2018-10-01T21:27:27.100Z,99968.00
2018-10-01T21:29:37.604Z,99968.00
2018-10-01T21:31:48.369Z,99971.00
2018-10-01T21:33:58.168Z,99972.00
2018-10-01T21:36:07.340Z,99973.00
2018-10-01T21:38:16.971Z,99966.00
2018-10-01T21:40:28.109Z,99968.00
2018-10-01T21:42:36.779Z,99972.00
2018-10-01T21:44:48.514Z,99960.00
2018-10-01T21:46:57.980Z,99966.00
2018-10-01T21:49:07.699Z,99966.00
2018-10-01T21:51:20.489Z,99962.00
2018-10-01T21:53:30.285Z,99967.00
2018-10-01T21:55:40.813Z,99968.00
2018-10-01T21:57:53.008Z,99965.00
2018-10-01T22:00:03.036Z,99967.00
2018-10-01T22:02:12.116Z,99963.00
2018-10-01T22:04:21.178Z,99965.00
2018-10-01T22:06:27.504Z,99966.00
2018-10-01T22:08:35.967Z,99971.00
2018-10-01T22:10:46.746Z,99963.00
2018-10-01T22:12:56.167Z,99961.00
2018-10-01T22:15:06.239Z,99965.00
2018-10-01T22:17:15.406Z,99964.00
2018-10-01T22:19:22.733Z,99966.00
2018-10-01T22:21:28.410Z,99964.00
2018-10-01T22:23:37.542Z,99956.00
2018-10-01T22:25:48.949Z,99965.00
2018-10-01T22:27:59.193Z,99957.00
2018-10-01T22:30:05.377Z,99960.00
2018-10-01T22:32:10.642Z,99956.00
2018-10-01T22:34:15.684Z,99960.00
2018-10-01T22:36:23.442Z,99952.00
2018-10-01T22:38:35.535Z,99949.00
2018-10-01T22:40:40.930Z,99951.00
2018-10-01T22:42:46.718Z,99958.00
2018-10-01T22:44:52.209Z,99958.00
2018-10-01T22:46:59.403Z,99956.00
2018-10-01T22:49:06.662Z,99950.00
2018-10-01T22:51:12.243Z,99956.00
2018-10-01T22:53:18.696Z,99962.00
2018-10-01T22:55:24.583Z,99954.00
2018-10-01T22:57:31.732Z,99953.00
2018-10-01T22:59:37.331Z,99949.00
2018-10-01T23:01:47.141Z,99948.00
2018-10-01T23:03:52.690Z,99949.00
2018-10-01T23:05:59.479Z,99952.00
2018-10-01T23:08:04.751Z,99951.00
2018-10-01T23:10:09.578Z,99952.00
2018-10-01T23:12:14.536Z,99945.00
2018-10-01T23:14:20.051Z,99948.00
2018-10-01T23:16:24.650Z,99946.00
2018-10-01T23:18:34.126Z,99947.00
2018-10-01T23:20:42.121Z,99953.00
2018-10-01T23:22:48.829Z,99943.00
2018-10-01T23:24:54.685Z,99949.00
2018-10-01T23:27:01.580Z,99945.00
2018-10-01T23:29:10.552Z,99947.00
2018-10-01T23:31:17.425Z,99953.00
2018-10-01T23:33:22.410Z,99947.00
2018-10-01T23:35:29.511Z,99955.00
2018-10-01T23:37:34.582Z,99952.00
2018-10-01T23:39:40.806Z,99956.00
2018-10-01T23:41:47.069Z,99957.00
2018-10-01T23:43:52.745Z,99952.00
2018-10-01T23:45:59.762Z,99943.00
2018-10-01T23:48:05.690Z,99948.00
2018-10-01T23:50:09.807Z,99945.00
2018-10-01T23:52:15.537Z,99950.00
2018-10-01T23:54:22.492Z,99951.00
2018-10-01T23:56:28.480Z,99949.00
2018-10-01T23:58:34.597Z,99948.00
